createdAt,value
2018-07-22T00:01:23.066Z,20.90
2018-07-22T00:03:51.146Z,15.33
2018-07-22T00:06:19.211Z,14.43
2018-07-22T00:08:47.290Z,18.30
2018-07-22T00:11:16.009Z,14.60
2018-07-22T00:13:44.067Z,33.50
2018-07-22T00:16:12.122Z,18.53
2018-07-22T00:18:40.157Z,14.23
2018-07-22T00:21:08.230Z,22.90
2018-07-22T00:23:36.297Z,32.30
2018-07-22T00:26:04.406Z,38.50
2018-07-22T00:28:32.469Z,19.23
2018-07-22T00:31:00.559Z,13.57
2018-07-22T00:33:28.941Z,29.50
2018-07-22T00:35:56.999Z,17.57
2018-07-22T00:38:25.049Z,20.10
2018-07-22T00:40:53.129Z,14.40
2018-07-22T00:43:21.175Z,30.63
2018-07-22T00:45:49.226Z,18.93
2018-07-22T00:48:17.297Z,21.30
2018-07-22T00:50:45.368Z,15.60
2018-07-22T00:53:13.441Z,12.43
2018-07-22T00:55:41.510Z,23.83
2018-07-22T00:58:09.565Z,13.83
2018-07-22T01:00:37.653Z,20.90
2018-07-22T01:03:05.787Z,41.97
2018-07-22T01:05:33.834Z,41.67
2018-07-22T01:08:01.962Z,26.37
2018-07-22T01:10:30.021Z,20.63
2018-07-22T01:12:58.103Z,17.40
2018-07-22T01:15:26.353Z,22.37
2018-07-22T01:17:54.421Z,19.00
2018-07-22T01:20:22.470Z,25.80
2018-07-22T01:22:50.533Z,19.43
2018-07-22T01:25:18.574Z,14.07
2018-07-22T01:27:46.668Z,20.13
2018-07-22T01:30:14.734Z,30.63
2018-07-22T01:32:42.794Z,17.80
2018-07-22T01:35:10.658Z,17.10
2018-07-22T01:37:38.729Z,16.17
2018-07-22T01:40:07.090Z,19.03
2018-07-22T01:42:35.145Z,14.50
2018-07-22T01:45:03.211Z,20.37
2018-07-22T01:47:31.266Z,23.30
2018-07-22T01:49:59.317Z,17.77
2018-07-22T01:52:27.382Z,17.00
2018-07-22T01:54:55.429Z,15.90
2018-07-22T01:57:23.589Z,14.53
2018-07-22T01:59:51.670Z,14.00
2018-07-22T02:02:19.745Z,16.80
2018-07-22T02:04:47.822Z,19.73
2018-07-22T02:07:15.896Z,15.17
2018-07-22T02:09:43.954Z,15.87
2018-07-22T02:12:12.019Z,13.70
2018-07-22T02:14:40.130Z,14.43
2018-07-22T02:17:08.209Z,12.83
2018-07-22T02:19:36.277Z,14.77
2018-07-22T02:22:04.128Z,14.07
2018-07-22T02:24:32.185Z,11.67
2018-07-22T02:27:00.245Z,15.07
2018-07-22T02:29:28.332Z,14.20
2018-07-22T02:31:56.418Z,19.63
2018-07-22T02:34:24.480Z,15.57
2018-07-22T02:36:52.533Z,12.77
2018-07-22T02:39:20.579Z,14.17
2018-07-22T02:41:48.642Z,15.30
2018-07-22T02:44:17.189Z,15.37
2018-07-22T02:46:45.249Z,17.33
2018-07-22T02:49:13.315Z,12.80
2018-07-22T02:51:41.365Z,11.97
2018-07-22T02:54:09.423Z,13.20
2018-07-22T02:56:37.633Z,19.10
2018-07-22T02:59:06.202Z,13.57
2018-07-22T03:01:36.118Z,16.53
2018-07-22T03:04:04.298Z,15.63
2018-07-22T03:06:32.772Z,14.23
2018-07-22T03:09:00.806Z,17.27
2018-07-22T03:11:28.861Z,14.20
2018-07-22T03:13:56.938Z,16.97
2018-07-22T03:16:24.995Z,17.23
2018-07-22T03:18:53.079Z,13.93
2018-07-22T03:21:21.117Z,16.63
2018-07-22T03:23:49.186Z,14.93
2018-07-22T03:26:17.845Z,13.27
2018-07-22T03:28:45.903Z,16.60
2018-07-22T03:31:13.982Z,17.63
2018-07-22T03:33:42.047Z,17.40
2018-07-22T03:36:10.093Z,12.97
2018-07-22T03:38:38.174Z,14.43
2018-07-22T03:41:06.221Z,15.57
2018-07-22T03:43:34.277Z,15.97
2018-07-22T03:46:02.398Z,15.03
2018-07-22T03:48:30.445Z,16.57
2018-07-22T03:50:58.507Z,19.50
2018-07-22T03:53:26.552Z,16.27
2018-07-22T03:55:54.608Z,16.43
2018-07-22T03:58:22.667Z,15.37
2018-07-22T04:00:50.710Z,22.10
2018-07-22T04:03:18.774Z,18.70
2018-07-22T04:05:47.000Z,15.10
2018-07-22T04:08:15.125Z,13.23
2018-07-22T04:10:43.196Z,11.40
2018-07-22T04:13:11.242Z,14.73
2018-07-22T04:15:39.301Z,13.63
2018-07-22T04:18:07.360Z,16.03
2018-07-22T04:20:35.908Z,15.67
2018-07-22T04:23:03.998Z,18.80
2018-07-22T04:25:32.085Z,14.77
2018-07-22T04:28:00.149Z,19.20
2018-07-22T04:30:28.205Z,14.87
2018-07-22T04:32:56.790Z,15.33
2018-07-22T04:35:25.857Z,22.10
2018-07-22T04:37:53.906Z,15.63
2018-07-22T04:40:22.160Z,16.10
2018-07-22T04:42:50.219Z,19.90
2018-07-22T04:45:18.274Z,16.87
2018-07-22T04:47:46.361Z,23.50
2018-07-22T04:50:14.518Z,12.00
2018-07-22T04:52:42.581Z,27.73
2018-07-22T04:55:10.664Z,17.10
2018-07-22T04:57:38.496Z,18.87
2018-07-22T05:00:06.557Z,16.90
2018-07-22T05:02:34.601Z,15.80
2018-07-22T05:05:02.676Z,16.90
2018-07-22T05:07:30.730Z,14.50
2018-07-22T05:09:58.994Z,18.80
2018-07-22T05:12:27.053Z,23.47
2018-07-22T05:14:55.120Z,21.57
2018-07-22T05:17:23.173Z,23.33
2018-07-22T05:19:51.229Z,21.10
2018-07-22T05:22:19.330Z,18.57
2018-07-22T05:24:47.393Z,18.17
2018-07-22T05:27:15.264Z,20.17
2018-07-22T05:29:43.313Z,19.77
2018-07-22T05:32:11.959Z,16.83
2018-07-22T05:34:40.030Z,25.03
2018-07-22T05:37:08.086Z,17.13
2018-07-22T05:39:36.185Z,19.07
2018-07-22T05:42:04.304Z,18.63
2018-07-22T05:44:32.422Z,20.33
2018-07-22T05:47:00.701Z,16.60
2018-07-22T05:49:28.766Z,19.63
2018-07-22T05:51:56.826Z,23.77
2018-07-22T05:54:24.892Z,33.77
2018-07-22T05:56:52.983Z,19.03
2018-07-22T05:59:21.046Z,17.53
2018-07-22T06:01:49.106Z,23.53
2018-07-22T06:04:17.158Z,15.70
2018-07-22T06:06:45.217Z,24.60
2018-07-22T06:09:13.281Z,25.03
2018-07-22T06:11:41.380Z,25.80
2018-07-22T06:14:09.417Z,24.43
2018-07-22T06:16:37.511Z,30.70
2018-07-22T06:19:05.545Z,16.30
2018-07-22T06:21:33.725Z,15.07
2018-07-22T06:24:01.800Z,20.70
2018-07-22T06:26:29.865Z,22.27
2018-07-22T06:28:57.934Z,26.00
2018-07-22T06:31:26.033Z,21.53
2018-07-22T06:33:54.089Z,17.80
2018-07-22T06:36:22.150Z,15.10
2018-07-22T06:38:50.213Z,16.07
2018-07-22T06:41:18.271Z,16.73
2018-07-22T06:43:46.343Z,15.00
2018-07-22T06:46:14.472Z,16.33
2018-07-22T06:48:42.470Z,27.33
2018-07-22T06:51:10.572Z,18.30
2018-07-22T06:53:38.657Z,22.00
2018-07-22T06:56:06.865Z,15.20
2018-07-22T06:58:34.911Z,16.93
2018-07-22T07:01:03.042Z,14.30
2018-07-22T07:03:31.053Z,25.20
2018-07-22T07:05:59.121Z,15.03
2018-07-22T07:08:27.173Z,13.77
2018-07-22T07:10:55.248Z,22.40
2018-07-22T07:13:23.306Z,20.70
2018-07-22T07:15:51.537Z,24.30
2018-07-22T07:18:19.602Z,17.57
2018-07-22T07:20:47.730Z,21.53
2018-07-22T07:23:15.732Z,20.43
2018-07-22T07:25:43.792Z,16.60
2018-07-22T07:28:11.858Z,17.60
2018-07-22T07:30:39.929Z,29.07
2018-07-22T07:33:08.010Z,15.53
2018-07-22T07:35:36.061Z,22.63
2018-07-22T07:38:04.227Z,18.07
2018-07-22T07:40:32.292Z,13.80
2018-07-22T07:43:00.357Z,16.43
2018-07-22T07:45:28.414Z,15.57
2018-07-22T07:47:57.685Z,13.27
2018-07-22T07:50:26.530Z,18.33
2018-07-22T07:52:54.581Z,19.20
2018-07-22T07:55:22.642Z,18.70
2018-07-22T07:57:50.548Z,24.57
2018-07-22T08:00:18.605Z,16.23
2018-07-22T08:02:46.670Z,17.53
2018-07-22T08:05:14.726Z,15.10
2018-07-22T08:07:42.814Z,13.67
2018-07-22T08:10:10.881Z,18.70
2018-07-22T08:12:39.721Z,12.20
2018-07-22T08:15:07.816Z,15.00
2018-07-22T08:17:35.868Z,16.63
2018-07-22T08:20:04.397Z,14.60
2018-07-22T08:22:32.482Z,17.93
2018-07-22T08:25:00.561Z,12.63
2018-07-22T08:27:28.645Z,24.53
2018-07-22T08:29:56.699Z,19.03
2018-07-22T08:32:24.776Z,19.80
2018-07-22T08:34:52.845Z,15.77
2018-07-22T08:37:20.718Z,16.90
2018-07-22T08:39:48.781Z,15.30
2018-07-22T08:42:16.875Z,17.90
2018-07-22T08:44:44.926Z,26.07
2018-07-22T08:47:13.006Z,16.33
2018-07-22T08:49:40.909Z,14.30
2018-07-22T08:52:08.970Z,15.73
2018-07-22T08:54:37.053Z,14.37
2018-07-22T08:57:05.333Z,13.30
2018-07-22T08:59:33.373Z,13.13
2018-07-22T09:02:01.422Z,17.60
2018-07-22T09:04:29.493Z,17.80
2018-07-22T09:06:57.581Z,15.90
2018-07-22T09:09:25.642Z,15.07
2018-07-22T09:11:53.702Z,14.47
2018-07-22T09:14:21.753Z,16.10
2018-07-22T09:16:49.829Z,11.30
2018-07-22T09:19:17.888Z,18.57
2018-07-22T09:21:45.934Z,25.13
2018-07-22T09:24:13.985Z,18.00
2018-07-22T09:26:42.041Z,19.13
2018-07-22T09:29:10.091Z,15.57
2018-07-22T09:31:38.168Z,17.87
2018-07-22T09:34:06.230Z,14.00
2018-07-22T09:36:34.335Z,14.87
2018-07-22T09:39:02.337Z,19.23
2018-07-22T09:41:30.409Z,25.23
2018-07-22T09:43:58.461Z,17.70
2018-07-22T09:46:26.505Z,17.40
2018-07-22T09:48:54.549Z,21.27
2018-07-22T09:51:22.605Z,14.73
2018-07-22T09:53:50.761Z,15.30
2018-07-22T09:56:18.749Z,18.03
2018-07-22T09:58:46.814Z,13.53
2018-07-22T10:01:14.865Z,11.50
2018-07-22T10:03:42.937Z,15.27
2018-07-22T10:06:10.991Z,14.73
2018-07-22T10:08:39.044Z,12.73
2018-07-22T10:11:07.162Z,10.23
2018-07-22T10:13:35.203Z,15.43
2018-07-22T10:16:03.333Z,14.40
2018-07-22T10:18:31.392Z,12.23
2018-07-22T10:20:59.462Z,11.23
2018-07-22T10:23:27.593Z,15.80
2018-07-22T10:25:55.585Z,13.70
2018-07-22T10:28:23.823Z,13.30
2018-07-22T10:30:51.880Z,14.40
2018-07-22T10:33:19.957Z,14.43
2018-07-22T10:35:48.067Z,13.63
2018-07-22T10:38:16.086Z,12.87
2018-07-22T10:40:44.144Z,11.40
2018-07-22T10:43:12.381Z,14.33
2018-07-22T10:45:40.431Z,17.50
2018-07-22T10:48:08.706Z,12.17
2018-07-22T10:50:36.811Z,13.97
2018-07-22T10:53:05.153Z,18.87
2018-07-22T10:55:33.218Z,17.40
2018-07-22T10:58:01.263Z,13.43
2018-07-22T11:00:29.331Z,13.23
2018-07-22T11:02:57.435Z,11.87
2018-07-22T11:05:25.469Z,14.07
2018-07-22T11:07:53.517Z,14.53
2018-07-22T11:10:21.587Z,12.43
2018-07-22T11:12:49.658Z,9.80
2018-07-22T11:15:17.745Z,12.97
2018-07-22T11:17:45.797Z,9.53
2018-07-22T11:20:13.853Z,9.10
2018-07-22T11:22:41.915Z,9.00
2018-07-22T11:25:09.981Z,7.73
2018-07-22T11:27:38.040Z,17.70
2018-07-22T11:30:06.201Z,9.80
2018-07-22T11:32:34.268Z,9.90
2018-07-22T11:35:02.478Z,11.67
2018-07-22T11:37:30.518Z,11.13
2018-07-22T11:39:58.574Z,9.40
2018-07-22T11:42:26.622Z,6.80
2018-07-22T11:44:54.681Z,6.93
2018-07-22T11:47:22.749Z,5.53
2018-07-22T11:49:50.805Z,14.23
2018-07-22T11:52:18.859Z,7.47
2018-07-22T11:54:46.929Z,6.93
2018-07-22T11:57:15.339Z,12.80
2018-07-22T11:59:43.381Z,9.30
2018-07-22T12:02:11.437Z,8.73
2018-07-22T12:04:39.636Z,18.03
2018-07-22T12:07:07.665Z,9.17
2018-07-22T12:09:35.758Z,13.40
2018-07-22T12:12:03.671Z,7.33
2018-07-22T12:14:31.721Z,6.80
2018-07-22T12:16:59.769Z,10.73
2018-07-22T12:19:27.833Z,8.53
2018-07-22T12:21:55.910Z,7.23
2018-07-22T12:24:23.961Z,5.40
2018-07-22T12:26:52.037Z,5.17
2018-07-22T12:29:20.102Z,6.07
2018-07-22T12:31:48.281Z,7.27
2018-07-22T12:34:16.385Z,8.03
2018-07-22T12:36:44.389Z,5.50
2018-07-22T12:39:13.085Z,7.33
2018-07-22T12:41:41.346Z,6.00
2018-07-22T12:44:09.425Z,5.47
2018-07-22T12:46:37.552Z,7.77
2018-07-22T12:49:05.861Z,7.93
2018-07-22T12:51:33.914Z,6.07
2018-07-22T12:54:01.965Z,6.13
2018-07-22T12:56:30.045Z,6.80
2018-07-22T12:58:58.521Z,16.60
2018-07-22T13:01:26.754Z,5.40
2018-07-22T13:03:54.912Z,8.43
2018-07-22T13:06:22.971Z,6.70
2018-07-22T13:08:51.024Z,9.47
2018-07-22T13:11:19.106Z,9.00
2018-07-22T13:13:47.350Z,10.40
2018-07-22T13:16:15.401Z,6.33
2018-07-22T13:18:43.457Z,4.10
2018-07-22T13:21:11.528Z,6.93
2018-07-22T13:23:39.665Z,8.00
2018-07-22T13:26:07.717Z,4.13
2018-07-22T13:28:36.517Z,6.37
2018-07-22T13:31:04.561Z,7.67
2018-07-22T13:33:32.593Z,6.47
2018-07-22T13:36:00.654Z,6.13
2018-07-22T13:38:28.718Z,3.93
2018-07-22T13:40:56.772Z,6.90
2018-07-22T13:43:24.853Z,5.43
2018-07-22T13:45:52.936Z,10.47
2018-07-22T13:48:21.197Z,6.40
2018-07-22T13:50:49.253Z,7.00
2018-07-22T13:53:17.296Z,11.63
2018-07-22T13:55:45.349Z,6.20
2018-07-22T13:58:13.401Z,9.70
2018-07-22T14:00:41.462Z,4.83
2018-07-22T14:03:09.498Z,6.70
2018-07-22T14:05:38.051Z,4.70
2018-07-22T14:08:06.189Z,5.70
2018-07-22T14:10:35.933Z,3.90
2018-07-22T14:13:05.561Z,7.40
2018-07-22T14:15:35.321Z,7.43
2018-07-22T14:18:03.381Z,4.60
2018-07-22T14:20:31.541Z,5.93
2018-07-22T14:22:59.590Z,7.40
2018-07-22T14:25:27.663Z,6.97
2018-07-22T14:27:55.737Z,7.03
2018-07-22T14:30:23.801Z,5.53
2018-07-22T14:32:51.847Z,8.80
2018-07-22T14:35:20.123Z,10.30
2018-07-22T14:37:48.185Z,8.73
2018-07-22T14:40:16.228Z,4.30
2018-07-22T14:42:45.985Z,4.37
2018-07-22T14:45:14.040Z,8.00
2018-07-22T14:47:41.981Z,6.10
2018-07-22T14:50:10.049Z,7.40
2018-07-22T14:52:38.133Z,7.53
2018-07-22T14:55:06.255Z,9.13
2018-07-22T14:57:34.355Z,10.03
2018-07-22T15:00:02.438Z,9.33
2018-07-22T15:02:30.305Z,8.93
2018-07-22T15:04:58.361Z,13.33
2018-07-22T15:07:26.419Z,4.20
2018-07-22T15:09:54.479Z,9.13
2018-07-22T15:12:22.539Z,15.33
2018-07-22T15:14:50.603Z,8.57
2018-07-22T15:17:18.673Z,6.83
2018-07-22T15:19:46.733Z,5.77
2018-07-22T15:22:14.677Z,4.23
2018-07-22T15:24:43.061Z,7.27
2018-07-22T15:27:11.113Z,13.33
2018-07-22T15:29:39.166Z,7.67
2018-07-22T15:32:08.063Z,6.87
2018-07-22T15:34:36.127Z,7.77
2018-07-22T15:37:04.236Z,4.03
2018-07-22T15:39:32.427Z,6.20
2018-07-22T15:42:00.509Z,10.17
2018-07-22T15:44:29.104Z,6.93
2018-07-22T15:46:57.158Z,4.57
2018-07-22T15:49:25.250Z,8.17
2018-07-22T15:51:53.313Z,8.30
2018-07-22T15:54:21.382Z,4.80
2018-07-22T15:56:49.430Z,4.00
2018-07-22T15:59:17.488Z,6.20
2018-07-22T16:01:45.561Z,3.57
2018-07-22T16:04:13.527Z,3.20
2018-07-22T16:06:41.607Z,4.17
2018-07-22T16:09:11.013Z,4.57
2018-07-22T16:11:39.070Z,4.63
2018-07-22T16:14:07.173Z,3.20
2018-07-22T16:16:35.236Z,10.17
2018-07-22T16:19:03.314Z,4.73
2018-07-22T16:21:31.369Z,4.57
2018-07-22T16:23:59.462Z,8.00
2018-07-22T16:26:27.518Z,8.70
2018-07-22T16:28:55.573Z,10.30
2018-07-22T16:31:23.658Z,2.90
2018-07-22T16:33:51.722Z,4.70
2018-07-22T16:36:19.786Z,3.10
2018-07-22T16:38:47.822Z,2.70
2018-07-22T16:41:16.544Z,3.20
2018-07-22T16:43:44.585Z,3.23
2018-07-22T16:46:12.630Z,3.80
2018-07-22T16:48:40.788Z,4.27
2018-07-22T16:51:08.934Z,4.70
2018-07-22T16:53:37.087Z,5.10
2018-07-22T16:56:05.053Z,4.00
2018-07-22T16:58:33.106Z,5.07
2018-07-22T17:01:00.948Z,4.83
2018-07-22T17:03:29.613Z,2.27
2018-07-22T17:05:57.698Z,5.33
2018-07-22T17:08:25.758Z,4.97
2018-07-22T17:10:53.806Z,2.47
2018-07-22T17:13:21.861Z,5.07
2018-07-22T17:15:49.917Z,7.13
2018-07-22T17:18:17.989Z,3.07
2018-07-22T17:20:46.070Z,4.50
2018-07-22T17:23:14.134Z,3.80
2018-07-22T17:25:42.202Z,5.83
2018-07-22T17:28:10.272Z,5.00
2018-07-22T17:30:38.343Z,4.60
2018-07-22T17:33:06.421Z,3.70
2018-07-22T17:41:17.414Z,3.13
2018-07-22T17:43:45.490Z,4.43
2018-07-22T17:46:13.510Z,4.57
2018-07-22T17:48:41.565Z,14.40
2018-07-22T17:51:09.737Z,2.70
2018-07-22T17:53:37.693Z,3.70
2018-07-22T17:56:05.863Z,8.37
2018-07-22T17:58:33.845Z,6.23
2018-07-22T18:01:01.862Z,15.83
2018-07-22T18:03:31.187Z,6.17
2018-07-22T18:05:59.584Z,5.10
2018-07-22T18:08:27.650Z,4.30
2018-07-22T18:10:56.113Z,5.20
2018-07-22T18:13:24.201Z,5.93
2018-07-22T18:15:52.281Z,5.73
2018-07-22T18:18:20.213Z,4.57
2018-07-22T18:20:48.906Z,6.57
2018-07-22T18:23:16.985Z,2.70
2018-07-22T18:25:45.750Z,3.77
2018-07-22T18:28:14.340Z,5.00
2018-07-22T18:30:42.626Z,4.50
2018-07-22T18:33:10.707Z,5.73
2018-07-22T18:35:38.815Z,9.83
2018-07-22T18:38:07.378Z,7.47
2018-07-22T18:40:35.308Z,4.90
2018-07-22T18:43:03.461Z,7.50
2018-07-22T18:45:32.579Z,7.70
2018-07-22T18:48:00.429Z,4.77
2018-07-22T18:50:28.565Z,5.33
2018-07-22T18:52:56.601Z,7.13
2018-07-22T18:55:24.662Z,5.80
2018-07-22T18:57:52.700Z,6.73
2018-07-22T19:00:20.762Z,8.23
2018-07-22T19:02:48.825Z,7.00
2018-07-22T19:05:16.898Z,12.13
2018-07-22T19:07:44.944Z,8.27
2018-07-22T19:10:13.019Z,7.20
2018-07-22T19:12:41.073Z,9.10
2018-07-22T19:15:09.158Z,3.83
2018-07-22T19:17:37.042Z,6.03
2018-07-22T19:20:05.344Z,8.90
2018-07-22T19:22:33.404Z,5.77
2018-07-22T19:25:01.486Z,6.87
2018-07-22T19:27:29.368Z,12.27
2018-07-22T19:29:57.208Z,9.27
2018-07-22T19:32:25.269Z,6.63
2018-07-22T19:34:53.356Z,7.57
2018-07-22T19:37:21.436Z,11.23
2018-07-22T19:39:49.705Z,8.03
2018-07-22T19:42:17.785Z,9.63
2018-07-22T19:44:45.890Z,5.40
2018-07-22T19:47:14.350Z,5.63
2018-07-22T19:49:42.569Z,5.40
2018-07-22T19:52:10.629Z,12.83
2018-07-22T19:54:38.709Z,9.30
2018-07-22T19:57:06.794Z,8.87
2018-07-22T19:59:34.846Z,9.00
2018-07-22T20:02:02.905Z,4.60
2018-07-22T20:04:30.965Z,9.03
2018-07-22T20:06:59.245Z,8.43
2018-07-22T20:09:27.079Z,7.63
2018-07-22T20:11:55.069Z,7.17
2018-07-22T20:14:23.221Z,10.33
2018-07-22T20:16:51.278Z,7.40
2018-07-22T20:19:19.341Z,6.73
2018-07-22T20:21:47.394Z,12.33
2018-07-22T20:24:15.571Z,11.40
2018-07-22T20:26:43.534Z,4.67
2018-07-22T20:29:11.582Z,16.07
2018-07-22T20:31:39.712Z,5.87
2018-07-22T20:34:07.755Z,4.47
2018-07-22T20:36:35.821Z,10.53
2018-07-22T20:39:06.485Z,6.20
2018-07-22T20:41:35.200Z,7.63
2018-07-22T20:44:03.233Z,7.53
2018-07-22T20:46:31.284Z,5.60
2018-07-22T20:48:59.334Z,7.13
2018-07-22T20:51:27.473Z,7.63
2018-07-22T20:53:55.481Z,8.63
2018-07-22T20:56:23.619Z,6.33
2018-07-22T20:58:51.639Z,8.90
2018-07-22T21:01:19.684Z,6.73
2018-07-22T21:03:47.757Z,6.50
2018-07-22T21:06:16.893Z,5.30
2018-07-22T21:08:45.174Z,6.90
2018-07-22T21:11:13.057Z,11.53
2018-07-22T21:13:41.126Z,5.90
2018-07-22T21:16:09.214Z,6.83
2018-07-22T21:18:37.334Z,6.80
2018-07-22T21:21:05.420Z,7.83
2018-07-22T21:23:33.497Z,11.57
2018-07-22T21:26:01.896Z,7.37
2018-07-22T21:28:29.944Z,7.10
2018-07-22T21:30:58.009Z,9.77
2018-07-22T21:33:26.056Z,5.10
2018-07-22T21:35:54.114Z,7.10
2018-07-22T21:38:22.186Z,16.67
2018-07-22T21:40:50.241Z,6.03
2018-07-22T21:43:18.084Z,7.87
2018-07-22T21:45:45.944Z,7.20
2018-07-22T21:48:13.804Z,9.33
2018-07-22T21:50:41.869Z,8.50
2018-07-22T21:53:09.950Z,9.13
2018-07-22T21:55:38.001Z,9.50
2018-07-22T21:58:06.069Z,7.70
2018-07-22T22:00:39.730Z,5.87
2018-07-22T22:03:07.810Z,7.10
2018-07-22T22:05:35.879Z,6.30
2018-07-22T22:08:03.918Z,6.57
2018-07-22T22:10:32.021Z,10.77
2018-07-22T22:13:00.081Z,9.47
2018-07-22T22:15:29.141Z,6.67
2018-07-22T22:17:58.393Z,9.20
2018-07-22T22:20:26.922Z,6.40
2018-07-22T22:22:55.097Z,6.70
2018-07-22T22:25:23.149Z,9.07
2018-07-22T22:27:51.213Z,9.93
2018-07-22T22:30:19.249Z,8.00
2018-07-22T22:32:47.605Z,8.37
2018-07-22T22:35:15.645Z,9.20
2018-07-22T22:37:44.229Z,6.73
2018-07-22T22:40:13.117Z,8.03
2018-07-22T22:42:42.534Z,9.10
2018-07-22T22:45:10.593Z,10.30
2018-07-22T22:47:38.649Z,13.63
2018-07-22T22:50:06.789Z,8.73
2018-07-22T22:52:34.842Z,11.13
2018-07-22T22:55:02.889Z,15.17
2018-07-22T22:57:30.938Z,11.73
2018-07-22T22:59:59.014Z,8.63
2018-07-22T23:02:32.445Z,12.60
2018-07-22T23:05:00.502Z,10.90
2018-07-22T23:07:28.561Z,9.80
2018-07-22T23:09:56.595Z,13.80
2018-07-22T23:12:24.649Z,12.90
2018-07-22T23:14:52.694Z,10.83
2018-07-22T23:17:20.754Z,14.43
2018-07-22T23:19:48.797Z,11.90
2018-07-22T23:22:17.075Z,14.27
2018-07-22T23:24:45.301Z,12.30
2018-07-22T23:27:13.381Z,19.03
2018-07-22T23:29:41.425Z,13.00
2018-07-22T23:32:10.373Z,13.87
2018-07-22T23:34:38.482Z,19.33
2018-07-22T23:37:06.577Z,14.13
2018-07-22T23:39:34.628Z,15.43
2018-07-22T23:42:02.692Z,18.90
2018-07-22T23:44:30.733Z,19.00
2018-07-22T23:46:58.789Z,13.43
2018-07-22T23:49:26.845Z,17.93
2018-07-22T23:51:54.893Z,16.63
2018-07-22T23:54:23.078Z,13.40
2018-07-22T23:56:51.278Z,13.00
2018-07-22T23:59:19.378Z,19.13
